createdAt,value
2019-01-11T00:00:18.418Z,101421.00
2019-01-11T00:03:07.800Z,101454.00
2019-01-11T00:05:48.254Z,101102.00
2019-01-11T00:08:36.020Z,101411.00
2019-01-11T00:11:16.410Z,101385.00
2019-01-11T00:13:44.334Z,101421.00
2019-01-11T00:16:28.458Z,101222.00
2019-01-11T00:19:16.045Z,101259.00
2019-01-11T00:21:56.568Z,101408.00
2019-01-11T00:24:44.177Z,101402.00
2019-01-11T00:27:12.207Z,101405.00
2019-01-11T00:29:40.572Z,101404.00
2019-01-11T00:32:08.494Z,101401.00
2019-01-11T00:34:36.367Z,101400.00
2019-01-11T00:37:04.417Z,101402.00
2019-01-11T00:39:33.321Z,101401.00
2019-01-11T00:42:01.210Z,101397.00
2019-01-11T00:44:29.050Z,101398.00
2019-01-11T00:46:56.971Z,101393.00
2019-01-11T00:49:24.837Z,101388.00
2019-01-11T00:51:52.764Z,101389.00
2019-01-11T00:54:20.611Z,101385.00
2019-01-11T00:56:48.630Z,101393.00
2019-01-11T00:59:16.477Z,101391.00
2019-01-11T01:01:44.574Z,101393.00
2019-01-11T01:04:12.532Z,101391.00
2019-01-11T01:06:40.458Z,101390.00
2019-01-11T01:09:08.669Z,101394.00
2019-01-11T01:11:56.043Z,101393.00
2019-01-11T01:14:37.493Z,101383.00
2019-01-11T01:17:05.623Z,101391.00
2019-01-11T01:19:49.707Z,101207.00
2019-01-11T01:22:17.754Z,101384.00
2019-01-11T01:24:59.526Z,101385.00
2019-01-11T01:27:46.878Z,101382.00
2019-01-11T01:30:27.437Z,101259.00
2019-01-11T01:33:15.930Z,101201.00
2019-01-11T01:35:56.656Z,101225.00
2019-01-11T01:38:44.481Z,101273.00
2019-01-11T01:41:24.964Z,101376.00
2019-01-11T01:44:12.400Z,101205.00
2019-01-11T01:46:53.056Z,101233.00
2019-01-11T01:49:40.454Z,101371.00
2019-01-11T01:52:23.272Z,101378.00
2019-01-11T01:55:03.986Z,101170.00
2019-01-11T01:57:44.514Z,101449.00
2019-01-11T02:00:31.924Z,101177.00
2019-01-11T02:03:12.014Z,101377.00
2019-01-11T02:05:59.425Z,101196.00
2019-01-11T02:08:40.382Z,101152.00
2019-01-11T02:11:27.815Z,101415.00
2019-01-11T02:14:08.294Z,101248.00
2019-01-11T02:16:55.615Z,101407.00
2019-01-11T02:19:36.458Z,101151.00
2019-01-11T02:22:23.932Z,101372.00
2019-01-11T02:25:04.241Z,101379.00
2019-01-11T02:27:51.637Z,101239.00
2019-01-11T02:30:32.505Z,101151.00
2019-01-11T02:33:24.862Z,101363.00
2019-01-11T02:36:12.211Z,101433.00
2019-01-11T02:38:54.132Z,101465.00
2019-01-11T02:41:34.132Z,101242.00
2019-01-11T02:44:21.516Z,101295.00
2019-01-11T02:47:02.224Z,101148.00
2019-01-11T02:49:49.604Z,101360.00
2019-01-11T02:52:29.594Z,101100.00
2019-01-11T02:54:57.658Z,101351.00
2019-01-11T02:57:25.513Z,101350.00
2019-01-11T02:59:53.494Z,101352.00
2019-01-11T03:02:37.442Z,101164.00
2019-01-11T03:05:25.452Z,101359.00
2019-01-11T03:08:27.335Z,101409.00
2019-01-11T03:11:14.941Z,101351.00
2019-01-11T03:13:55.315Z,101204.00
2019-01-11T03:16:36.316Z,101350.00
2019-01-11T03:19:23.720Z,101349.00
2019-01-11T03:22:04.445Z,101345.00
2019-01-11T03:24:44.799Z,101360.00
2019-01-11T03:27:32.138Z,101117.00
2019-01-11T03:30:16.068Z,101338.00
2019-01-11T03:33:03.485Z,101317.00
2019-01-11T03:35:44.436Z,101103.00
2019-01-11T03:38:31.983Z,101409.00
2019-01-11T03:41:12.691Z,101338.00
2019-01-11T03:44:00.079Z,101223.00
2019-01-11T03:46:27.988Z,101329.00
2019-01-11T03:49:15.620Z,101018.00
2019-01-11T03:51:43.506Z,101327.00
2019-01-11T03:54:30.865Z,101090.00
2019-01-11T03:57:11.523Z,101182.00
2019-01-11T03:59:58.917Z,101104.00
2019-01-11T04:02:39.876Z,101327.00
2019-01-11T04:05:27.249Z,101337.00
2019-01-11T04:08:08.005Z,101328.00
2019-01-11T04:10:49.196Z,101077.00
2019-01-11T04:13:36.640Z,101333.00
2019-01-11T04:16:17.413Z,101108.00
2019-01-11T04:19:24.993Z,101331.00
2019-01-11T04:22:25.556Z,101332.00
2019-01-11T04:25:32.641Z,101323.00
2019-01-11T04:28:13.461Z,101115.00
2019-01-11T04:30:53.726Z,101114.00
2019-01-11T04:33:33.738Z,101187.00
2019-01-11T04:36:21.167Z,101336.00
2019-01-11T04:39:02.394Z,101336.00
2019-01-11T04:41:42.870Z,101095.00
2019-01-11T04:44:30.300Z,101338.00
2019-01-11T04:47:11.141Z,101331.00
2019-01-11T04:49:58.525Z,101416.00
2019-01-11T04:52:26.406Z,101335.00
2019-01-11T04:55:14.592Z,101340.00
2019-01-11T04:57:56.422Z,101412.00
2019-01-11T05:00:43.906Z,101162.00
2019-01-11T05:03:24.278Z,101088.00
2019-01-11T05:06:11.849Z,101079.00
2019-01-11T05:08:52.604Z,101320.00
2019-01-11T05:11:39.994Z,101316.00
2019-01-11T05:14:20.850Z,101322.00
2019-01-11T05:17:08.275Z,101399.00
2019-01-11T05:19:48.771Z,101308.00
2019-01-11T05:22:36.108Z,101315.00
2019-01-11T05:25:17.002Z,101320.00
2019-01-11T05:28:04.332Z,101324.00
2019-01-11T05:30:45.034Z,101110.00
2019-01-11T05:33:32.598Z,101140.00
2019-01-11T05:36:13.039Z,101324.00
2019-01-11T05:39:00.363Z,101306.00
2019-01-11T05:41:42.988Z,101425.00
2019-01-11T05:44:10.841Z,101305.00
2019-01-11T05:46:38.688Z,101298.00
2019-01-11T05:49:26.044Z,101305.00
2019-01-11T05:52:06.104Z,101308.00
2019-01-11T05:54:53.526Z,101019.00
2019-01-11T05:57:34.193Z,101302.00
2019-01-11T06:00:22.078Z,101020.00
2019-01-11T06:03:02.456Z,101349.00
2019-01-11T06:05:49.819Z,101295.00
2019-01-11T06:08:31.589Z,101031.00
2019-01-11T06:11:18.956Z,101293.00
2019-01-11T06:13:59.625Z,101348.00
2019-01-11T06:16:27.462Z,101285.00
2019-01-11T06:19:07.576Z,101287.00
2019-01-11T06:21:35.458Z,101276.00
2019-01-11T06:24:03.391Z,101276.00
2019-01-11T06:26:50.914Z,101270.00
2019-01-11T06:29:31.404Z,101270.00
2019-01-11T06:31:59.334Z,101265.00
2019-01-11T06:34:40.720Z,100981.00
2019-01-11T06:37:20.959Z,101302.00
2019-01-11T06:40:08.462Z,101042.00
2019-01-11T06:42:48.867Z,101086.00
2019-01-11T06:45:36.203Z,101161.00
2019-01-11T06:51:23.606Z,101275.00
2019-01-11T06:54:11.023Z,101054.00
2019-01-11T06:56:51.978Z,101049.00
2019-01-11T06:59:39.404Z,101264.00
2019-01-11T07:02:20.254Z,101268.00
2019-01-11T07:05:08.396Z,101267.00
2019-01-11T07:07:49.352Z,101151.00
2019-01-11T07:10:36.781Z,101261.00
2019-01-11T07:13:17.417Z,101004.00
2019-01-11T07:16:04.745Z,101030.00
2019-01-11T07:18:45.645Z,101015.00
2019-01-11T07:21:33.025Z,101258.00
2019-01-11T07:24:13.605Z,101259.00
2019-01-11T07:27:01.003Z,101254.00
2019-01-11T07:29:41.783Z,101261.00
2019-01-11T07:32:29.153Z,101259.00
2019-01-11T07:35:10.543Z,101261.00
2019-01-11T07:37:57.988Z,101316.00
2019-01-11T07:40:38.195Z,101242.00
2019-01-11T07:43:18.324Z,101032.00
2019-01-11T07:46:05.717Z,100898.00
2019-01-11T07:48:46.509Z,101114.00
2019-01-11T07:51:33.895Z,101011.00
2019-01-11T07:54:14.682Z,101262.00
2019-01-11T07:57:02.144Z,101232.00
2019-01-11T07:59:43.092Z,101368.00
2019-01-11T08:02:30.406Z,101242.00
2019-01-11T08:05:10.879Z,101244.00
2019-01-11T08:07:38.820Z,101251.00
2019-01-11T08:10:19.767Z,101026.00
2019-01-11T08:13:00.625Z,101205.00
2019-01-11T08:15:48.312Z,100936.00
2019-01-11T08:18:16.581Z,101241.00
2019-01-11T08:21:03.982Z,101012.00
2019-01-11T08:23:45.919Z,101013.00
2019-01-11T08:26:33.548Z,101048.00
2019-01-11T08:29:13.934Z,101240.00
2019-01-11T08:31:41.906Z,101247.00
2019-01-11T08:34:22.993Z,101240.00
2019-01-11T08:36:51.315Z,101248.00
2019-01-11T08:39:19.305Z,101238.00
2019-01-11T08:41:47.203Z,101238.00
2019-01-11T08:44:15.146Z,101229.00
2019-01-11T08:46:56.961Z,101242.00
2019-01-11T08:49:44.571Z,101363.00
2019-01-11T08:52:25.121Z,100964.00
2019-01-11T08:54:53.121Z,101238.00
2019-01-11T08:57:34.187Z,101368.00
2019-01-11T09:00:21.593Z,101312.00
2019-01-11T09:03:02.464Z,101234.00
2019-01-11T09:05:49.828Z,101013.00
2019-01-11T09:08:30.689Z,101367.00
2019-01-11T09:11:18.333Z,101240.00
2019-01-11T09:13:46.224Z,101239.00
2019-01-11T09:16:20.656Z,101238.00
2019-01-11T09:19:17.398Z,101224.00
2019-01-11T09:22:04.979Z,101078.00
2019-01-11T09:24:45.173Z,101342.00
2019-01-11T09:27:32.618Z,101235.00
2019-01-11T09:30:00.537Z,101240.00
2019-01-11T09:32:28.522Z,101221.00
2019-01-11T09:35:09.550Z,101234.00
2019-01-11T09:37:37.530Z,101243.00
2019-01-11T09:40:17.608Z,101111.00
2019-01-11T09:43:05.016Z,101239.00
2019-01-11T09:45:46.049Z,100977.00
2019-01-11T09:48:33.449Z,101239.00
2019-01-11T09:51:15.830Z,101249.00
2019-01-11T09:54:03.363Z,101302.00
2019-01-11T09:56:44.222Z,101078.00
2019-01-11T09:59:24.492Z,101017.00
2019-01-11T10:02:31.560Z,100875.00
2019-01-11T10:05:12.138Z,101143.00
2019-01-11T10:07:52.911Z,101083.00
2019-01-11T10:10:40.535Z,101233.00
2019-01-11T10:13:21.422Z,100980.00
2019-01-11T10:16:08.827Z,100933.00
2019-01-11T10:18:49.295Z,101250.00
2019-01-11T10:21:36.741Z,101099.00
2019-01-11T10:24:17.653Z,101232.00
2019-01-11T10:27:05.105Z,100961.00
2019-01-11T10:29:45.919Z,101231.00
2019-01-11T10:32:33.443Z,101049.00
2019-01-11T10:35:01.415Z,101210.00
2019-01-11T10:37:49.085Z,101226.00
2019-01-11T10:40:29.189Z,100938.00
2019-01-11T10:43:16.607Z,100952.00
2019-01-11T10:45:59.270Z,101205.00
2019-01-11T10:48:46.931Z,101028.00
2019-01-11T10:51:28.226Z,101204.00
2019-01-11T10:54:35.333Z,101202.00
2019-01-11T10:57:16.007Z,101183.00
2019-01-11T10:59:57.283Z,101308.00
2019-01-11T11:02:44.762Z,101179.00
2019-01-11T11:05:26.157Z,101176.00
2019-01-11T11:08:06.333Z,101173.00
2019-01-11T11:10:53.832Z,101167.00
2019-01-11T11:13:34.319Z,100882.00
2019-01-11T11:16:02.785Z,101157.00
2019-01-11T11:18:30.660Z,101150.00
2019-01-11T11:20:58.661Z,101159.00
2019-01-11T11:23:26.606Z,101162.00
2019-01-11T11:26:14.066Z,101165.00
2019-01-11T11:28:54.259Z,101165.00
2019-01-11T11:31:23.209Z,101157.00
2019-01-11T11:34:05.208Z,101206.00
2019-01-11T11:36:52.606Z,101164.00
2019-01-11T11:39:32.962Z,101059.00
2019-01-11T11:42:00.911Z,101168.00
2019-01-11T11:44:41.291Z,101159.00
2019-01-11T11:47:28.664Z,101143.00
2019-01-11T11:50:09.371Z,100853.00
2019-01-11T11:52:56.932Z,100884.00
2019-01-11T11:55:37.857Z,100950.00
2019-01-11T11:58:05.967Z,101138.00
2019-01-11T12:00:46.307Z,100923.00
2019-01-11T12:03:33.692Z,101138.00
2019-01-11T12:06:14.399Z,100882.00
2019-01-11T12:08:55.334Z,100899.00
2019-01-11T12:11:42.747Z,101242.00
2019-01-11T12:14:23.279Z,101132.00
2019-01-11T12:17:04.547Z,101125.00
2019-01-11T12:19:44.789Z,100963.00
2019-01-11T12:22:32.179Z,100910.00
2019-01-11T12:25:12.859Z,101115.00
2019-01-11T12:28:00.365Z,101108.00
2019-01-11T12:30:42.894Z,101095.00
2019-01-11T12:33:30.435Z,100882.00
2019-01-11T12:36:11.272Z,100870.00
2019-01-11T12:38:58.660Z,100923.00
2019-01-11T12:41:39.978Z,101164.00
2019-01-11T12:44:20.881Z,101095.00
2019-01-11T12:47:08.737Z,100851.00
2019-01-11T12:49:49.023Z,101109.00
2019-01-11T12:52:36.439Z,100830.00
2019-01-11T12:55:17.581Z,101113.00
2019-01-11T12:58:05.281Z,101207.00
2019-01-11T13:00:45.656Z,101158.00
2019-01-11T13:03:33.183Z,101078.00
2019-01-11T13:06:01.193Z,101069.00
2019-01-11T13:08:41.586Z,100911.00
2019-01-11T13:11:21.669Z,101151.00
2019-01-11T13:14:09.108Z,101068.00
2019-01-11T13:16:49.712Z,101081.00
2019-01-11T13:19:37.277Z,101067.00
2019-01-11T13:22:18.026Z,101059.00
2019-01-11T13:25:06.070Z,100855.00
2019-01-11T13:27:47.781Z,100862.00
2019-01-11T13:30:36.380Z,101048.00
2019-01-11T13:33:17.581Z,101047.00
2019-01-11T13:39:15.422Z,101055.00
2019-01-11T13:42:03.326Z,100797.00
2019-01-11T13:44:45.292Z,101069.00
2019-01-11T13:47:13.211Z,101068.00
2019-01-11T13:49:41.232Z,101065.00
2019-01-11T13:52:09.212Z,101053.00
2019-01-11T13:54:50.481Z,100867.00
2019-01-11T13:57:37.955Z,100865.00
2019-01-11T14:00:18.720Z,101075.00
2019-01-11T14:03:06.509Z,101069.00
2019-01-11T14:05:46.879Z,100883.00
2019-01-11T14:11:28.404Z,101055.00
2019-01-11T14:13:56.335Z,101052.00
2019-01-11T14:16:24.399Z,101067.00
2019-01-11T14:19:11.988Z,100971.00
2019-01-11T14:21:39.928Z,101058.00
2019-01-11T14:24:28.447Z,101062.00
2019-01-11T14:26:56.385Z,101054.00
2019-01-11T14:29:24.369Z,101058.00
2019-01-11T14:32:05.466Z,100998.00
2019-01-11T14:34:53.188Z,101058.00
2019-01-11T14:37:33.711Z,101070.00
2019-01-11T14:40:22.092Z,101066.00
2019-01-11T14:43:03.138Z,100850.00
2019-01-11T14:45:51.555Z,101061.00
2019-01-11T14:48:32.163Z,101022.00
2019-01-11T14:51:19.528Z,101060.00
2019-01-11T14:54:00.691Z,100870.00
2019-01-11T14:56:28.706Z,101069.00
2019-01-11T14:59:12.745Z,101151.00
2019-01-11T15:01:53.773Z,101053.00
2019-01-11T15:04:41.233Z,100873.00
2019-01-11T15:07:09.295Z,101039.00
2019-01-11T15:09:38.033Z,101054.00
2019-01-11T15:12:19.802Z,100859.00
2019-01-11T15:14:47.782Z,101042.00
2019-01-11T15:17:29.991Z,101058.00
2019-01-11T15:20:17.960Z,100723.00
2019-01-11T15:22:58.291Z,100711.00
2019-01-11T15:25:45.890Z,101041.00
2019-01-11T15:28:27.000Z,101044.00
2019-01-11T15:31:14.491Z,100805.00
2019-01-11T15:33:54.723Z,100784.00
2019-01-11T15:36:36.692Z,101026.00
2019-01-11T15:39:16.925Z,101034.00
2019-01-11T15:42:04.648Z,100922.00
2019-01-11T15:44:32.649Z,101024.00
2019-01-11T15:47:20.358Z,101023.00
2019-01-11T15:50:00.824Z,101020.00
2019-01-11T15:52:33.336Z,101027.00
2019-01-11T15:54:58.997Z,101031.00
2019-01-11T15:57:46.632Z,101023.00
2019-01-11T16:00:19.644Z,101011.00
2019-01-11T16:03:01.715Z,100971.00
2019-01-11T16:05:29.796Z,101019.00
2019-01-11T16:08:05.426Z,101021.00
2019-01-11T16:11:15.170Z,101019.00
2019-01-11T16:14:08.384Z,101023.00
2019-01-11T16:17:16.209Z,100792.00
2019-01-11T16:19:44.440Z,101028.00
2019-01-11T16:22:12.455Z,101025.00
2019-01-11T16:24:40.450Z,101019.00
2019-01-11T16:27:08.557Z,101015.00
2019-01-11T16:29:56.258Z,100798.00
2019-01-11T16:32:36.933Z,101022.00
2019-01-11T16:35:25.149Z,101021.00
2019-01-11T16:38:06.298Z,100789.00
2019-01-11T16:40:53.787Z,101056.00
2019-01-11T16:43:34.780Z,101013.00
2019-01-11T16:46:02.911Z,101007.00
2019-01-11T16:48:43.541Z,100808.00
2019-01-11T16:51:11.566Z,101000.00
2019-01-11T16:53:52.416Z,101017.00
2019-01-11T16:56:39.802Z,101066.00
2019-01-11T16:59:08.030Z,101004.00
2019-01-11T17:01:55.777Z,101017.00
2019-01-11T17:04:36.394Z,101081.00
2019-01-11T17:07:23.816Z,101111.00
2019-01-11T17:10:04.607Z,100954.00
2019-01-11T17:12:52.808Z,101003.00
2019-01-11T17:15:33.176Z,100835.00
2019-01-11T17:18:20.949Z,101006.00
2019-01-11T17:21:02.646Z,101010.00
2019-01-11T17:23:30.840Z,101019.00
2019-01-11T17:25:59.071Z,101003.00
2019-01-11T17:28:27.269Z,101006.00
2019-01-11T17:30:55.512Z,101019.00
2019-01-11T17:33:23.848Z,101012.00
2019-01-11T17:35:52.016Z,100999.00
2019-01-11T17:38:20.332Z,101000.00
2019-01-11T17:40:48.534Z,100994.00
2019-01-11T17:43:16.625Z,101002.00
2019-01-11T17:45:44.718Z,101004.00
2019-01-11T17:48:13.008Z,101003.00
2019-01-11T17:50:41.347Z,101007.00
2019-01-11T17:53:29.077Z,101007.00
2019-01-11T17:56:09.675Z,101004.00
2019-01-11T17:58:57.582Z,100861.00
2019-01-11T18:01:38.256Z,101005.00
2019-01-11T18:04:06.318Z,101005.00
2019-01-11T18:06:34.414Z,101014.00
2019-01-11T18:09:04.999Z,101013.00
2019-01-11T18:11:35.160Z,101023.00
2019-01-11T18:14:03.594Z,101014.00
2019-01-11T18:16:31.602Z,101015.00
2019-01-11T18:18:59.670Z,101009.00
2019-01-11T18:21:27.713Z,101017.00
2019-01-11T18:23:56.020Z,101016.00
2019-01-11T18:26:25.123Z,101022.00
2019-01-11T18:28:53.289Z,101017.00
2019-01-11T18:31:21.464Z,101016.00
2019-01-11T18:33:49.733Z,101018.00
2019-01-11T18:36:17.898Z,101007.00
2019-01-11T18:38:45.994Z,101012.00
2019-01-11T18:41:14.203Z,101013.00
2019-01-11T18:44:01.976Z,101011.00
2019-01-11T18:46:42.482Z,101032.00
2019-01-11T18:49:30.933Z,100930.00
2019-01-11T18:52:09.724Z,100821.00
2019-01-11T18:54:37.747Z,100998.00
2019-01-11T18:57:19.905Z,101002.00
2019-01-11T19:00:11.168Z,101056.00
2019-01-11T19:02:39.350Z,100987.00
2019-01-11T19:05:27.458Z,100795.00
2019-01-11T19:08:08.103Z,100995.00
2019-01-11T19:10:55.639Z,100985.00
2019-01-11T19:13:36.323Z,100991.00
2019-01-11T19:16:23.958Z,100981.00
2019-01-11T19:19:05.186Z,100878.00
2019-01-11T19:21:46.484Z,100868.00
2019-01-11T19:24:34.084Z,100723.00
2019-01-11T19:27:15.001Z,101010.00
2019-01-11T19:30:03.341Z,100989.00
2019-01-11T19:32:43.873Z,101059.00
2019-01-11T19:35:24.815Z,101063.00
2019-01-11T19:38:12.458Z,100995.00
2019-01-11T19:40:40.759Z,101008.00
2019-01-11T19:43:28.470Z,101047.00
2019-01-11T19:46:09.225Z,101030.00
2019-01-11T19:48:57.722Z,101009.00
2019-01-11T19:51:38.368Z,101016.00
2019-01-11T19:54:06.729Z,101010.00
2019-01-11T19:56:47.318Z,101043.00
2019-01-11T19:59:36.278Z,101004.00
2019-01-11T20:02:18.556Z,101004.00
2019-01-11T20:05:06.785Z,101018.00
2019-01-11T20:07:34.995Z,101004.00
2019-01-11T20:10:04.773Z,101003.00
2019-01-11T20:12:33.195Z,101016.00
2019-01-11T20:15:01.402Z,100998.00
2019-01-11T20:17:45.431Z,101064.00
2019-01-11T20:20:13.996Z,101021.00
2019-01-11T20:22:42.356Z,101011.00
2019-01-11T20:25:14.619Z,101006.00
2019-01-11T20:27:42.907Z,101011.00
2019-01-11T20:30:17.888Z,101022.00
2019-01-11T20:32:47.146Z,101008.00
2019-01-11T20:35:15.646Z,101008.00
2019-01-11T20:37:44.585Z,101013.00
2019-01-11T20:40:32.383Z,100848.00
2019-01-11T20:43:00.457Z,101010.00
2019-01-11T20:45:28.627Z,101013.00
2019-01-11T20:47:56.777Z,101009.00
2019-01-11T20:50:25.635Z,101014.00
2019-01-11T20:52:55.004Z,101006.00
2019-01-11T20:55:23.512Z,101015.00
2019-01-11T20:58:04.342Z,100891.00
2019-01-11T21:00:52.106Z,100879.00
2019-01-11T21:03:32.834Z,100872.00
2019-01-11T21:06:20.736Z,100776.00
2019-01-11T21:09:01.645Z,101082.00
2019-01-11T21:11:49.473Z,101012.00
2019-01-11T21:14:17.678Z,101013.00
2019-01-11T21:16:45.997Z,101011.00
2019-01-11T21:19:27.532Z,100864.00
2019-01-11T21:22:08.719Z,100865.00
2019-01-11T21:24:49.879Z,101003.00
2019-01-11T21:27:18.086Z,101011.00
2019-01-11T21:29:47.404Z,101000.00
2019-01-11T21:32:15.699Z,101004.00
2019-01-11T21:34:43.958Z,101002.00
2019-01-11T21:37:24.331Z,100918.00
2019-01-11T21:43:53.479Z,100809.00
2019-01-11T21:46:34.631Z,101096.00
2019-01-11T21:49:02.692Z,101015.00
2019-01-11T21:51:30.840Z,101019.00
2019-01-11T21:54:18.390Z,101012.00
2019-01-11T21:56:59.339Z,101011.00
2019-01-11T21:59:46.835Z,101101.00
2019-01-11T22:02:28.019Z,101005.00
2019-01-11T22:05:15.946Z,101014.00
2019-01-11T22:07:43.991Z,101015.00
2019-01-11T22:10:31.598Z,101064.00
2019-01-11T22:13:12.986Z,100838.00
2019-01-11T22:16:00.682Z,101009.00
2019-01-11T22:18:29.027Z,101018.00
2019-01-11T22:21:17.718Z,100844.00
2019-01-11T22:24:03.102Z,101013.00
2019-01-11T22:26:48.264Z,100868.00
2019-01-11T22:29:28.553Z,100792.00
2019-01-11T22:32:16.498Z,100936.00
2019-01-11T22:34:57.219Z,101049.00
2019-01-11T22:37:44.967Z,100944.00
2019-01-11T22:40:17.764Z,101026.00
2019-01-11T22:42:47.644Z,101035.00
2019-01-11T22:45:16.737Z,101030.00
2019-01-11T22:48:04.896Z,101037.00
2019-01-11T22:50:33.382Z,101033.00
2019-01-11T22:53:13.829Z,100864.00
2019-01-11T22:55:41.825Z,101028.00
2019-01-11T22:58:26.730Z,100968.00
2019-01-11T23:04:38.600Z,101024.00
2019-01-11T23:07:47.689Z,101023.00
2019-01-11T23:11:17.545Z,101014.00
2019-01-11T23:13:46.128Z,101032.00
2019-01-11T23:17:16.354Z,101019.00
2019-01-11T23:19:57.306Z,100809.00
2019-01-11T23:22:45.452Z,101025.00
2019-01-11T23:25:26.497Z,100933.00
2019-01-11T23:27:54.862Z,101033.00
2019-01-11T23:30:25.259Z,101023.00
2019-01-11T23:33:12.848Z,101018.00
2019-01-11T23:35:54.327Z,101025.00
2019-01-11T23:38:42.006Z,101051.00
2019-01-11T23:41:22.976Z,101024.00
2019-01-11T23:43:51.123Z,101022.00
2019-01-11T23:46:19.093Z,101031.00
2019-01-11T23:48:47.255Z,101027.00
2019-01-11T23:51:15.504Z,101036.00
2019-01-11T23:53:54.257Z,101045.00
2019-01-11T23:56:41.933Z,101042.00
2019-01-11T23:59:21.982Z,100864.00
